sensor_id;sensor_type;location;lat;lon;timestamp;pressure;altitude;pressure_sealevel;temperature;humidity
818;BME280;391;51.052;6.954;2022-09-28T00:00:36;99099.63;;;9.27;91.44
818;BME280;391;51.052;6.954;2022-09-28T00:02:40;99101.34;;;9.25;91.81
818;BME280;391;51.052;6.954;2022-09-28T00:04:44;99111.53;;;9.01;92.24
818;BME280;391;51.052;6.954;2022-09-28T00:06:47;99104.59;;;8.98;92.97
818;BME280;391;51.052;6.954;2022-09-28T00:08:51;99102.19;;;9.21;93.12
818;BME280;391;51.052;6.954;2022-09-28T00:10:56;99109.16;;;9.25;93.08
818;BME280;391;51.052;6.954;2022-09-28T00:13:00;99107.47;;;9.33;92.34
818;BME280;391;51.052;6.954;2022-09-28T00:15:04;99107.50;;;9.38;92.75
818;BME280;391;51.052;6.954;2022-09-28T00:17:07;99103.94;;;9.24;92.35
818;BME280;391;51.052;6.954;2022-09-28T00:19:11;99101.38;;;9.33;92.13
818;BME280;391;51.052;6.954;2022-09-28T00:21:16;99105.75;;;9.35;91.77
818;BME280;391;51.052;6.954;2022-09-28T00:23:20;99098.78;;;9.33;91.77
818;BME280;391;51.052;6.954;2022-09-28T00:25:23;99105.78;;;9.40;91.64
818;BME280;391;51.052;6.954;2022-09-28T00:27:28;99098.84;;;9.42;91.31
818;BME280;391;51.052;6.954;2022-09-28T00:29:32;99099.72;;;9.41;91.24
818;BME280;391;51.052;6.954;2022-09-28T00:31:36;99100.59;;;9.40;91.54
818;BME280;391;51.052;6.954;2022-09-28T00:33:39;99094.56;;;9.51;91.60
818;BME280;391;51.052;6.954;2022-09-28T00:35:43;99100.66;;;9.47;90.91
818;BME280;391;51.052;6.954;2022-09-28T00:37:47;99093.69;;;9.43;90.32
818;BME280;391;51.052;6.954;2022-09-28T00:39:51;99095.34;;;9.34;91.03
818;BME280;391;51.052;6.954;2022-09-28T00:41:55;99098.84;;;9.40;90.78
818;BME280;391;51.052;6.954;2022-09-28T00:46:46;99088.44;;;9.42;90.70
818;BME280;391;51.052;6.954;2022-09-28T00:48:52;99085.88;;;9.43;90.52
818;BME280;391;51.052;6.954;2022-09-28T00:50:58;99084.94;;;9.38;90.35
818;BME280;391;51.052;6.954;2022-09-28T00:53:07;99091.91;;;9.38;90.38
818;BME280;391;51.052;6.954;2022-09-28T00:55:16;99090.16;;;9.41;90.69
818;BME280;391;51.052;6.954;2022-09-28T00:57:21;99084.94;;;9.35;90.71
818;BME280;391;51.052;6.954;2022-09-28T00:59:25;99087.59;;;9.43;90.71
818;BME280;391;51.052;6.954;2022-09-28T01:01:28;99076.28;;;9.35;89.86
818;BME280;391;51.052;6.954;2022-09-28T01:03:34;99067.66;;;9.40;90.69
818;BME280;391;51.052;6.954;2022-09-28T01:05:38;99068.53;;;9.44;89.92
818;BME280;391;51.052;6.954;2022-09-28T01:07:43;99073.72;;;9.41;90.09
818;BME280;391;51.052;6.954;2022-09-28T01:09:48;99067.63;;;9.37;89.36
818;BME280;391;51.052;6.954;2022-09-28T01:11:52;99060.63;;;9.32;90.34
818;BME280;391;51.052;6.954;2022-09-28T01:13:56;99061.53;;;9.38;90.15
818;BME280;391;51.052;6.954;2022-09-28T01:16:07;99055.47;;;9.35;90.39
818;BME280;391;51.052;6.954;2022-09-28T01:18:17;99061.56;;;9.41;90.58
818;BME280;391;51.052;6.954;2022-09-28T01:20:32;99062.34;;;9.25;90.40
818;BME280;391;51.052;6.954;2022-09-28T01:23:01;99076.22;;;9.27;90.83
818;BME280;391;51.052;6.954;2022-09-28T01:25:12;99075.38;;;9.31;89.85
818;BME280;391;51.052;6.954;2022-09-28T01:27:23;99079.72;;;9.31;89.94
818;BME280;391;51.052;6.954;2022-09-28T01:29:39;99077.16;;;9.38;90.75
818;BME280;391;51.052;6.954;2022-09-28T01:31:50;99075.47;;;9.43;90.46
818;BME280;391;51.052;6.954;2022-09-28T01:33:59;99073.75;;;9.48;90.29
818;BME280;391;51.052;6.954;2022-09-28T01:36:06;99054.63;;;9.39;90.06
818;BME280;391;51.052;6.954;2022-09-28T01:38:16;99070.31;;;9.49;90.22
818;BME280;391;51.052;6.954;2022-09-28T01:40:23;99072.84;;;9.45;89.64
818;BME280;391;51.052;6.954;2022-09-28T01:42:31;99058.91;;;9.32;89.92
818;BME280;391;51.052;6.954;2022-09-28T01:44:41;99068.50;;;9.38;90.31
818;BME280;391;51.052;6.954;2022-09-28T01:46:48;99065.97;;;9.47;90.29
818;BME280;391;51.052;6.954;2022-09-28T01:48:55;99069.47;;;9.56;90.34
818;BME280;391;51.052;6.954;2022-09-28T01:51:03;99068.59;;;9.54;89.59
818;BME280;391;51.052;6.954;2022-09-28T01:53:11;99067.66;;;9.43;89.88
818;BME280;391;51.052;6.954;2022-09-28T01:55:23;99066.78;;;9.43;90.01
818;BME280;391;51.052;6.954;2022-09-28T01:57:33;99060.75;;;9.47;89.74
818;BME280;391;51.052;6.954;2022-09-28T01:59:42;99059.00;;;9.43;89.45
818;BME280;391;51.052;6.954;2022-09-28T02:01:51;99054.53;;;9.27;90.71
818;BME280;391;51.052;6.954;2022-09-28T02:04:00;99060.69;;;9.38;90.49
818;BME280;391;51.052;6.954;2022-09-28T02:06:08;99015.50;;;9.18;90.06
818;BME280;391;51.052;6.954;2022-09-28T02:08:20;99062.44;;;9.42;90.39
818;BME280;391;51.052;6.954;2022-09-28T02:10:32;99049.41;;;9.39;90.51
818;BME280;391;51.052;6.954;2022-09-28T02:12:42;99057.28;;;9.46;90.25
818;BME280;391;51.052;6.954;2022-09-28T02:14:48;99057.28;;;9.51;89.90
818;BME280;391;51.052;6.954;2022-09-28T02:16:55;99059.00;;;9.44;89.16
818;BME280;391;51.052;6.954;2022-09-28T02:19:03;99062.50;;;9.51;89.77
818;BME280;391;51.052;6.954;2022-09-28T02:21:12;99059.88;;;9.51;89.63
818;BME280;391;51.052;6.954;2022-09-28T02:23:19;99064.25;;;9.53;89.67
818;BME280;391;51.052;6.954;2022-09-28T02:25:34;99071.22;;;9.56;89.75
818;BME280;391;51.052;6.954;2022-09-28T02:27:44;99062.53;;;9.58;89.28
818;BME280;391;51.052;6.954;2022-09-28T02:29:51;99068.63;;;9.62;89.39
818;BME280;391;51.052;6.954;2022-09-28T02:31:54;99059.94;;;9.58;89.22
818;BME280;391;51.052;6.954;2022-09-28T02:33:58;99060.78;;;9.50;89.67
818;BME280;391;51.052;6.954;2022-09-28T02:36:01;99052.06;;;9.46;89.20
818;BME280;391;51.052;6.954;2022-09-28T02:38:11;99071.19;;;9.50;89.99
818;BME280;391;51.052;6.954;2022-09-28T02:40:17;99066.88;;;9.56;89.66
818;BME280;391;51.052;6.954;2022-09-28T02:42:26;99070.31;;;9.54;89.57
818;BME280;391;51.052;6.954;2022-09-28T02:44:43;99066.81;;;9.49;90.28
818;BME280;391;51.052;6.954;2022-09-28T02:46:55;99057.31;;;9.52;89.88
818;BME280;391;51.052;6.954;2022-09-28T02:49:16;99071.16;;;9.51;90.51
818;BME280;391;51.052;6.954;2022-09-28T02:51:29;99069.47;;;9.53;90.36
818;BME280;391;51.052;6.954;2022-09-28T02:53:48;99068.53;;;9.44;90.16
818;BME280;391;51.052;6.954;2022-09-28T02:56:11;99070.34;;;9.55;90.40
818;BME280;391;51.052;6.954;2022-09-28T02:58:27;99063.41;;;9.56;89.84
818;BME280;391;51.052;6.954;2022-09-28T03:00:40;99041.50;;;9.22;89.88
818;BME280;391;51.052;6.954;2022-09-28T03:02:55;99056.38;;;9.40;90.41
818;BME280;391;51.052;6.954;2022-09-28T03:05:11;99069.34;;;9.38;90.00
818;BME280;391;51.052;6.954;2022-09-28T03:07:23;99045.88;;;9.25;90.51
818;BME280;391;51.052;6.954;2022-09-28T03:09:32;99067.63;;;9.34;90.36
818;BME280;391;51.052;6.954;2022-09-28T03:11:41;99065.91;;;9.42;90.47
818;BME280;391;51.052;6.954;2022-09-28T03:13:45;99063.31;;;9.41;90.30
818;BME280;391;51.052;6.954;2022-09-28T03:16:04;99062.44;;;9.40;90.34
818;BME280;391;51.052;6.954;2022-09-28T03:18:07;99066.78;;;9.43;90.50
818;BME280;391;51.052;6.954;2022-09-28T03:20:11;99063.31;;;9.41;90.63
818;BME280;391;51.052;6.954;2022-09-28T03:22:15;99045.84;;;9.23;90.55
818;BME280;391;51.052;6.954;2022-09-28T03:24:18;99064.16;;;9.40;90.62
818;BME280;391;51.052;6.954;2022-09-28T03:26:22;99066.88;;;9.53;90.55
818;BME280;391;51.052;6.954;2022-09-28T03:28:25;99062.53;;;9.55;90.80
818;BME280;391;51.052;6.954;2022-09-28T03:30:29;99067.78;;;9.65;90.86
818;BME280;391;51.052;6.954;2022-09-28T03:32:34;99068.63;;;9.62;89.91
818;BME280;391;51.052;6.954;2022-09-28T03:34:38;99075.56;;;9.62;89.93
818;BME280;391;51.052;6.954;2022-09-28T03:36:41;99080.78;;;9.60;89.96
818;BME280;391;51.052;6.954;2022-09-28T03:38:45;99071.22;;;9.64;90.58
818;BME280;391;51.052;6.954;2022-09-28T03:40:52;99067.75;;;9.57;90.75
818;BME280;391;51.052;6.954;2022-09-28T03:42:58;99071.22;;;9.64;90.64
818;BME280;391;51.052;6.954;2022-09-28T03:45:03;99067.78;;;9.65;90.72
818;BME280;391;51.052;6.954;2022-09-28T03:47:07;99070.34;;;9.58;90.73
818;BME280;391;51.052;6.954;2022-09-28T03:49:12;99070.25;;;9.45;91.03
818;BME280;391;51.052;6.954;2022-09-28T03:51:16;99066.00;;;9.53;91.42
818;BME280;391;51.052;6.954;2022-09-28T03:53:19;99070.31;;;9.54;91.49
818;BME280;391;51.052;6.954;2022-09-28T03:55:23;99074.59;;;9.46;91.54
818;BME280;391;51.052;6.954;2022-09-28T03:57:26;99068.56;;;9.48;91.86
818;BME280;391;51.052;6.954;2022-09-28T03:59:30;99072.97;;;9.57;91.99
818;BME280;391;51.052;6.954;2022-09-28T04:01:33;99014.63;;;9.20;91.76
818;BME280;391;51.052;6.954;2022-09-28T04:03:37;99072.06;;;9.58;91.96
818;BME280;391;51.052;6.954;2022-09-28T04:05:48;99070.38;;;9.63;91.33
818;BME280;391;51.052;6.954;2022-09-28T04:07:53;99077.31;;;9.60;91.53
818;BME280;391;51.052;6.954;2022-09-28T04:09:57;99074.63;;;9.47;91.47
818;BME280;391;51.052;6.954;2022-09-28T04:12:01;99069.44;;;9.47;91.56
818;BME280;391;51.052;6.954;2022-09-28T04:14:07;99045.03;;;9.32;91.91
818;BME280;391;51.052;6.954;2022-09-28T04:16:11;99067.63;;;9.42;91.27
818;BME280;391;51.052;6.954;2022-09-28T04:18:18;99069.41;;;9.44;92.03
818;BME280;391;51.052;6.954;2022-09-28T04:20:39;99071.16;;;9.48;91.87
818;BME280;391;51.052;6.954;2022-09-28T04:22:48;99065.94;;;9.48;91.90
818;BME280;391;51.052;6.954;2022-09-28T04:24:52;99062.47;;;9.48;92.17
818;BME280;391;51.052;6.954;2022-09-28T04:26:55;99071.19;;;9.53;92.09
818;BME280;391;51.052;6.954;2022-09-28T04:29:19;99071.19;;;9.54;91.33
818;BME280;391;51.052;6.954;2022-09-28T04:31:27;99079.88;;;9.56;90.97
818;BME280;391;51.052;6.954;2022-09-28T04:33:31;99069.41;;;9.44;91.35
818;BME280;391;51.052;6.954;2022-09-28T04:35:34;99072.88;;;9.43;91.61
818;BME280;391;51.052;6.954;2022-09-28T04:37:38;99074.56;;;9.38;91.98
818;BME280;391;51.052;6.954;2022-09-28T04:39:43;99069.44;;;9.49;92.41
818;BME280;391;51.052;6.954;2022-09-28T04:41:52;99076.34;;;9.48;92.21
818;BME280;391;51.052;6.954;2022-09-28T04:43:56;99075.50;;;9.54;92.36
818;BME280;391;51.052;6.954;2022-09-28T04:46:00;99076.34;;;9.47;91.99
818;BME280;391;51.052;6.954;2022-09-28T04:48:12;99072.88;;;9.46;92.21
818;BME280;391;51.052;6.954;2022-09-28T04:50:54;99078.97;;;9.48;92.11
818;BME280;391;51.052;6.954;2022-09-28T04:52:59;99058.94;;;9.35;92.18
818;BME280;391;51.052;6.954;2022-09-28T04:55:05;99078.06;;;9.40;93.15
818;BME280;391;51.052;6.954;2022-09-28T04:57:09;99074.59;;;9.46;92.67
818;BME280;391;51.052;6.954;2022-09-28T04:59:13;99077.25;;;9.52;92.78
818;BME280;391;51.052;6.954;2022-09-28T05:01:18;99085.06;;;9.53;92.14
818;BME280;391;51.052;6.954;2022-09-28T05:03:33;99084.16;;;9.44;92.21
818;BME280;391;51.052;6.954;2022-09-28T05:05:58;99077.13;;;9.35;92.41
818;BME280;391;51.052;6.954;2022-09-28T05:08:14;99077.97;;;9.28;92.75
818;BME280;391;51.052;6.954;2022-09-28T05:10:20;99077.13;;;9.35;92.65
818;BME280;391;51.052;6.954;2022-09-28T05:12:24;99071.09;;;9.38;92.27
818;BME280;391;51.052;6.954;2022-09-28T05:14:27;99084.13;;;9.45;92.06
818;BME280;391;51.052;6.954;2022-09-28T05:16:32;99078.06;;;9.43;91.79
818;BME280;391;51.052;6.954;2022-09-28T05:19:11;99084.91;;;9.28;91.86
818;BME280;391;51.052;6.954;2022-09-28T05:21:16;99088.38;;;9.28;91.84
818;BME280;391;51.052;6.954;2022-09-28T05:23:21;99091.88;;;9.36;91.79
818;BME280;391;51.052;6.954;2022-09-28T05:25:30;99082.34;;;9.34;91.90
818;BME280;391;51.052;6.954;2022-09-28T05:27:44;99085.78;;;9.33;91.49
818;BME280;391;51.052;6.954;2022-09-28T05:30:12;99091.91;;;9.35;91.53
818;BME280;391;51.052;6.954;2022-09-28T05:32:38;99089.31;;;9.41;91.01
818;BME280;391;51.052;6.954;2022-09-28T05:35:05;99086.59;;;9.24;91.10
818;BME280;391;51.052;6.954;2022-09-28T05:37:15;99084.91;;;9.29;91.24
818;BME280;391;51.052;6.954;2022-09-28T05:39:20;99084.16;;;9.44;91.21
818;BME280;391;51.052;6.954;2022-09-28T05:41:25;99083.28;;;9.51;90.66
818;BME280;391;51.052;6.954;2022-09-28T05:43:29;99087.56;;;9.38;90.53
818;BME280;391;51.052;6.954;2022-09-28T05:45:32;99082.41;;;9.43;91.07
818;BME280;391;51.052;6.954;2022-09-28T05:47:38;99093.66;;;9.42;90.84
818;BME280;391;51.052;6.954;2022-09-28T05:49:42;99077.19;;;9.40;90.42
818;BME280;391;51.052;6.954;2022-09-28T05:51:46;99087.63;;;9.46;90.19
818;BME280;391;51.052;6.954;2022-09-28T05:53:53;99088.41;;;9.36;90.14
818;BME280;391;51.052;6.954;2022-09-28T05:55:57;99095.44;;;9.49;90.08
818;BME280;391;51.052;6.954;2022-09-28T05:58:04;99092.88;;;9.53;90.24
818;BME280;391;51.052;6.954;2022-09-28T06:00:09;99097.19;;;9.51;90.23
818;BME280;391;51.052;6.954;2022-09-28T06:02:19;99087.63;;;9.49;89.61
818;BME280;391;51.052;6.954;2022-09-28T06:04:23;99105.88;;;9.55;90.08
818;BME280;391;51.052;6.954;2022-09-28T06:06:26;99105.03;;;9.56;90.08
818;BME280;391;51.052;6.954;2022-09-28T06:08:31;99100.06;;;10.03;96.04
818;BME280;391;51.052;6.954;2022-09-28T06:10:48;99099.44;;;10.65;93.71
818;BME280;391;51.052;6.954;2022-09-28T06:12:52;99098.50;;;10.34;88.40
818;BME280;391;51.052;6.954;2022-09-28T06:14:57;99103.66;;;10.17;88.53
818;BME280;391;51.052;6.954;2022-09-28T06:17:02;99101.84;;;10.11;88.48
818;BME280;391;51.052;6.954;2022-09-28T06:19:06;99107.88;;;9.98;87.91
818;BME280;391;51.052;6.954;2022-09-28T06:21:37;99110.38;;;9.82;88.34
818;BME280;391;51.052;6.954;2022-09-28T06:23:41;99112.16;;;9.86;89.29
818;BME280;391;51.052;6.954;2022-09-28T06:25:52;99120.72;;;9.71;88.67
818;BME280;391;51.052;6.954;2022-09-28T06:27:56;99113.78;;;9.69;89.18
818;BME280;391;51.052;6.954;2022-09-28T06:30:02;99098.06;;;9.55;89.00
818;BME280;391;51.052;6.954;2022-09-28T06:32:06;99127.63;;;9.63;89.44
818;BME280;391;51.052;6.954;2022-09-28T06:34:11;99127.59;;;9.60;88.88
818;BME280;391;51.052;6.954;2022-09-28T06:36:16;99129.28;;;9.50;89.42
818;BME280;391;51.052;6.954;2022-09-28T06:38:19;99121.47;;;9.47;89.92
818;BME280;391;51.052;6.954;2022-09-28T06:40:24;99140.56;;;9.52;90.11
818;BME280;391;51.052;6.954;2022-09-28T06:42:29;99137.00;;;9.43;90.30
818;BME280;391;51.052;6.954;2022-09-28T06:44:58;99142.16;;;9.38;90.63
818;BME280;391;51.052;6.954;2022-09-28T06:47:19;99137.03;;;9.46;90.67
818;BME280;391;51.052;6.954;2022-09-28T06:49:33;99142.25;;;9.47;90.56
818;BME280;391;51.052;6.954;2022-09-28T06:52:14;99138.72;;;9.39;90.40
818;BME280;391;51.052;6.954;2022-09-28T06:54:39;99134.44;;;9.46;91.17
818;BME280;391;51.052;6.954;2022-09-28T06:56:55;99144.03;;;9.54;90.38
818;BME280;391;51.052;6.954;2022-09-28T06:58:59;99147.38;;;9.41;90.68
818;BME280;391;51.052;6.954;2022-09-28T07:01:03;99151.75;;;9.45;90.11
818;BME280;391;51.052;6.954;2022-09-28T07:03:21;99156.97;;;9.45;90.43
818;BME280;391;51.052;6.954;2022-09-28T07:05:40;99148.22;;;9.34;89.78
818;BME280;391;51.052;6.954;2022-09-28T07:08:11;99156.75;;;9.18;90.20
818;BME280;391;51.052;6.954;2022-09-28T07:10:34;99162.84;;;9.23;90.52
818;BME280;391;51.052;6.954;2022-09-28T07:12:58;99160.19;;;9.17;90.14
818;BME280;391;51.052;6.954;2022-09-28T07:15:24;99164.59;;;9.21;90.27
818;BME280;391;51.052;6.954;2022-09-28T07:17:28;99156.75;;;9.18;90.28
818;BME280;391;51.052;6.954;2022-09-28T07:19:36;99168.16;;;9.38;90.44
818;BME280;391;51.052;6.954;2022-09-28T07:21:39;99165.66;;;9.46;89.31
818;BME280;391;51.052;6.954;2022-09-28T07:23:43;99167.31;;;9.36;88.56
818;BME280;391;51.052;6.954;2022-09-28T07:26:02;99153.31;;;9.24;89.09
818;BME280;391;51.052;6.954;2022-09-28T07:28:29;99166.41;;;9.33;88.37
818;BME280;391;51.052;6.954;2022-09-28T07:31:04;99163.91;;;9.48;88.39
818;BME280;391;51.052;6.954;2022-09-28T07:33:39;99171.78;;;9.52;87.72
818;BME280;391;51.052;6.954;2022-09-28T07:35:53;99178.75;;;9.56;87.53
818;BME280;391;51.052;6.954;2022-09-28T07:38:05;99183.94;;;9.56;87.50
818;BME280;391;51.052;6.954;2022-09-28T07:40:09;99124.78;;;9.33;87.73
818;BME280;391;51.052;6.954;2022-09-28T07:42:30;99190.06;;;9.63;87.68
818;BME280;391;51.052;6.954;2022-09-28T07:44:33;99192.72;;;9.69;86.83
818;BME280;391;51.052;6.954;2022-09-28T07:46:37;99191.94;;;9.79;86.96
818;BME280;391;51.052;6.954;2022-09-28T07:48:49;99191.06;;;9.83;86.25
818;BME280;391;51.052;6.954;2022-09-28T07:51:09;99201.50;;;9.85;86.44
818;BME280;391;51.052;6.954;2022-09-28T07:53:33;99191.91;;;9.81;87.07
818;BME280;391;51.052;6.954;2022-09-28T07:56:00;99205.00;;;9.93;86.06
818;BME280;391;51.052;6.954;2022-09-28T07:58:11;99209.41;;;10.00;86.07
818;BME280;391;51.052;6.954;2022-09-28T08:00:22;99205.06;;;9.97;85.86
818;BME280;391;51.052;6.954;2022-09-28T08:02:25;99208.53;;;10.02;85.36
818;BME280;391;51.052;6.954;2022-09-28T08:04:29;99210.25;;;9.99;84.69
818;BME280;391;51.052;6.954;2022-09-28T08:06:34;99207.69;;;10.03;85.06
818;BME280;391;51.052;6.954;2022-09-28T08:08:40;99205.13;;;10.13;85.21
818;BME280;391;51.052;6.954;2022-09-28T08:10:47;99210.31;;;10.06;85.22
818;BME280;391;51.052;6.954;2022-09-28T08:13:12;99212.94;;;10.13;85.12
818;BME280;391;51.052;6.954;2022-09-28T08:15:34;99212.06;;;10.12;84.79
818;BME280;391;51.052;6.954;2022-09-28T08:18:02;99218.22;;;10.17;83.80
818;BME280;391;51.052;6.954;2022-09-28T08:20:07;99214.72;;;10.14;83.60
818;BME280;391;51.052;6.954;2022-09-28T08:22:29;99221.59;;;10.08;84.06
818;BME280;391;51.052;6.954;2022-09-28T08:24:34;99212.06;;;10.07;84.56
818;BME280;391;51.052;6.954;2022-09-28T08:26:38;99217.41;;;10.26;83.69
818;BME280;391;51.052;6.954;2022-09-28T08:28:42;99222.69;;;10.41;83.99
818;BME280;391;51.052;6.954;2022-09-28T08:31:11;99220.06;;;10.36;84.30
818;BME280;391;51.052;6.954;2022-09-28T08:33:35;99217.44;;;10.35;83.75
818;BME280;391;51.052;6.954;2022-09-28T08:35:59;99226.16;;;10.37;83.78
818;BME280;391;51.052;6.954;2022-09-28T08:38:23;99228.81;;;10.46;83.02
818;BME280;391;51.052;6.954;2022-09-28T08:40:54;99229.69;;;10.52;83.08
818;BME280;391;51.052;6.954;2022-09-28T08:43:21;99234.88;;;10.46;82.82
818;BME280;391;51.052;6.954;2022-09-28T08:45:49;99239.19;;;10.37;83.49
818;BME280;391;51.052;6.954;2022-09-28T08:48:18;99243.53;;;10.44;83.87
818;BME280;391;51.052;6.954;2022-09-28T08:51:16;99234.03;;;10.49;83.57
818;BME280;391;51.052;6.954;2022-09-28T08:53:47;99246.19;;;10.53;83.43
818;BME280;391;51.052;6.954;2022-09-28T08:55:59;99241.84;;;10.53;83.11
818;BME280;391;51.052;6.954;2022-09-28T08:58:09;99245.41;;;10.74;83.79
818;BME280;391;51.052;6.954;2022-09-28T09:00:19;99245.47;;;10.86;82.84
818;BME280;391;51.052;6.954;2022-09-28T09:02:26;99260.22;;;10.84;82.56
818;BME280;391;51.052;6.954;2022-09-28T09:04:44;99253.28;;;10.78;82.39
818;BME280;391;51.052;6.954;2022-09-28T09:09:53;99259.41;;;10.94;81.49
818;BME280;391;51.052;6.954;2022-09-28T09:12:05;99255.06;;;10.99;80.86
818;BME280;391;51.052;6.954;2022-09-28T09:14:25;99255.94;;;11.01;80.91
818;BME280;391;51.052;6.954;2022-09-28T09:16:41;99255.06;;;10.99;79.76
818;BME280;391;51.052;6.954;2022-09-28T09:19:15;99263.75;;;10.90;80.81
818;BME280;391;51.052;6.954;2022-09-28T09:21:39;99254.97;;;10.72;82.28
818;BME280;391;51.052;6.954;2022-09-28T09:23:53;99260.19;;;10.75;82.63
818;BME280;391;51.052;6.954;2022-09-28T09:26:03;99264.56;;;10.80;81.71
818;BME280;391;51.052;6.954;2022-09-28T09:28:32;99263.63;;;10.66;82.15
818;BME280;391;51.052;6.954;2022-09-28T09:30:45;99266.22;;;10.58;82.35
818;BME280;391;51.052;6.954;2022-09-28T09:33:03;99261.00;;;10.61;81.67
818;BME280;391;51.052;6.954;2022-09-28T09:35:34;99261.91;;;10.68;82.47
818;BME280;391;51.052;6.954;2022-09-28T09:38:20;99266.25;;;10.69;81.53
818;BME280;391;51.052;6.954;2022-09-28T09:40:58;99271.47;;;10.74;81.02
818;BME280;391;51.052;6.954;2022-09-28T09:43:53;99264.50;;;10.65;81.18
818;BME280;391;51.052;6.954;2022-09-28T09:46:25;99266.25;;;10.71;80.46
818;BME280;391;51.052;6.954;2022-09-28T09:48:59;99277.63;;;10.85;80.46
818;BME280;391;51.052;6.954;2022-09-28T09:51:12;99275.06;;;10.94;80.60
818;BME280;391;51.052;6.954;2022-09-28T09:53:23;99273.28;;;10.91;80.22
818;BME280;391;51.052;6.954;2022-09-28T09:55:30;99278.53;;;10.99;80.77
818;BME280;391;51.052;6.954;2022-09-28T09:58:01;99280.22;;;10.89;79.67
818;BME280;391;51.052;6.954;2022-09-28T10:00:17;99272.44;;;10.88;79.55
818;BME280;391;51.052;6.954;2022-09-28T10:02:38;99272.41;;;10.85;80.14
818;BME280;391;51.052;6.954;2022-09-28T10:04:56;99276.81;;;10.99;79.09
818;BME280;391;51.052;6.954;2022-09-28T10:07:14;99285.56;;;11.20;78.50
818;BME280;391;51.052;6.954;2022-09-28T10:09:23;99277.72;;;11.12;79.30
818;BME280;391;51.052;6.954;2022-09-28T10:11:47;99277.75;;;11.20;77.51
818;BME280;391;51.052;6.954;2022-09-28T10:13:51;99278.59;;;11.17;77.84
818;BME280;391;51.052;6.954;2022-09-28T10:16:23;99284.69;;;11.27;77.06
818;BME280;391;51.052;6.954;2022-09-28T10:18:32;99276.91;;;11.40;76.76
818;BME280;391;51.052;6.954;2022-09-28T10:20:55;99276.06;;;11.56;76.57
818;BME280;391;51.052;6.954;2022-09-28T10:23:19;99276.94;;;11.57;76.01
818;BME280;391;51.052;6.954;2022-09-28T10:25:24;99273.47;;;11.67;76.21
818;BME280;391;51.052;6.954;2022-09-28T10:27:32;99279.59;;;11.71;75.86
818;BME280;391;51.052;6.954;2022-09-28T10:29:42;99274.31;;;11.61;75.55
818;BME280;391;51.052;6.954;2022-09-28T10:31:51;99285.63;;;11.65;75.28
818;BME280;391;51.052;6.954;2022-09-28T10:34:00;99281.34;;;11.73;74.76
818;BME280;391;51.052;6.954;2022-09-28T10:36:05;99263.94;;;11.72;74.41
818;BME280;391;51.052;6.954;2022-09-28T10:38:15;99283.97;;;11.84;74.50
818;BME280;391;51.052;6.954;2022-09-28T10:40:35;99280.47;;;11.82;73.73
818;BME280;391;51.052;6.954;2022-09-28T10:42:41;99286.56;;;11.96;73.19
818;BME280;391;51.052;6.954;2022-09-28T10:44:51;99283.97;;;11.96;72.52
818;BME280;391;51.052;6.954;2022-09-28T10:47:15;99264.75;;;11.69;72.43
818;BME280;391;51.052;6.954;2022-09-28T10:49:21;99281.34;;;11.93;72.92
818;BME280;391;51.052;6.954;2022-09-28T10:51:40;99283.06;;;12.01;72.90
818;BME280;391;51.052;6.954;2022-09-28T10:53:57;99263.94;;;11.95;72.61
818;BME280;391;51.052;6.954;2022-09-28T10:56:22;99282.19;;;12.16;72.08
818;BME280;391;51.052;6.954;2022-09-28T10:58:39;99285.69;;;12.12;72.04
818;BME280;391;51.052;6.954;2022-09-28T11:00:48;99284.78;;;12.16;72.09
818;BME280;391;51.052;6.954;2022-09-28T11:02:54;99285.69;;;12.10;71.54
818;BME280;391;51.052;6.954;2022-09-28T11:05:00;99286.56;;;12.18;72.15
818;BME280;391;51.052;6.954;2022-09-28T11:07:15;99293.50;;;12.23;71.50
818;BME280;391;51.052;6.954;2022-09-28T11:09:25;99283.94;;;12.09;72.65
818;BME280;391;51.052;6.954;2022-09-28T11:11:39;99278.72;;;12.08;72.11
818;BME280;391;51.052;6.954;2022-09-28T11:13:45;99265.69;;;11.99;71.42
818;BME280;391;51.052;6.954;2022-09-28T11:15:55;99277.84;;;11.97;72.23
818;BME280;391;51.052;6.954;2022-09-28T11:18:24;99289.16;;;12.17;71.92
818;BME280;391;51.052;6.954;2022-09-28T11:20:32;99286.53;;;12.12;71.75
818;BME280;391;51.052;6.954;2022-09-28T11:22:39;99288.31;;;12.12;72.00
818;BME280;391;51.052;6.954;2022-09-28T11:24:46;99286.56;;;12.22;72.23
818;BME280;391;51.052;6.954;2022-09-28T11:26:51;99285.66;;;12.27;72.12
818;BME280;391;51.052;6.954;2022-09-28T11:29:00;99281.31;;;12.31;72.08
818;BME280;391;51.052;6.954;2022-09-28T11:31:15;99286.53;;;12.34;72.24
818;BME280;391;51.052;6.954;2022-09-28T11:33:31;99287.38;;;12.36;72.16
818;BME280;391;51.052;6.954;2022-09-28T11:36:03;99287.38;;;12.40;72.46
818;BME280;391;51.052;6.954;2022-09-28T11:38:30;99290.00;;;12.37;72.13
818;BME280;391;51.052;6.954;2022-09-28T11:41:22;99291.72;;;12.35;72.28
818;BME280;391;51.052;6.954;2022-09-28T11:46:01;99290.84;;;12.48;72.12
818;BME280;391;51.052;6.954;2022-09-28T11:48:12;99289.97;;;12.48;71.55
818;BME280;391;51.052;6.954;2022-09-28T11:50:27;99287.34;;;12.55;71.83
818;BME280;391;51.052;6.954;2022-09-28T11:52:36;99290.81;;;12.60;71.61
818;BME280;391;51.052;6.954;2022-09-28T11:54:44;99289.97;;;12.60;70.96
818;BME280;391;51.052;6.954;2022-09-28T11:56:50;99287.34;;;12.48;70.94
818;BME280;391;51.052;6.954;2022-09-28T11:58:57;99285.63;;;12.44;71.33
818;BME280;391;51.052;6.954;2022-09-28T12:01:20;99283.03;;;12.47;71.32
818;BME280;391;51.052;6.954;2022-09-28T12:03:49;99273.44;;;12.47;71.38
818;BME280;391;51.052;6.954;2022-09-28T12:05:58;99291.66;;;12.64;71.25
818;BME280;391;51.052;6.954;2022-09-28T12:08:07;99293.38;;;12.85;71.29
818;BME280;391;51.052;6.954;2022-09-28T12:10:42;99293.31;;;12.97;70.38
818;BME280;391;51.052;6.954;2022-09-28T12:12:57;99295.03;;;12.96;70.17
818;BME280;391;51.052;6.954;2022-09-28T12:15:10;99288.94;;;12.96;70.48
818;BME280;391;51.052;6.954;2022-09-28T12:17:20;99286.34;;;12.93;70.45
818;BME280;391;51.052;6.954;2022-09-28T12:19:29;99293.34;;;12.91;70.75
818;BME280;391;51.052;6.954;2022-09-28T12:21:41;99283.78;;;12.78;70.20
818;BME280;391;51.052;6.954;2022-09-28T12:23:47;99292.50;;;12.86;70.39
818;BME280;391;51.052;6.954;2022-09-28T12:25:55;99292.47;;;12.87;70.16
818;BME280;391;51.052;6.954;2022-09-28T12:28:03;99294.19;;;12.93;70.02
818;BME280;391;51.052;6.954;2022-09-28T12:30:12;99292.47;;;12.90;68.55
818;BME280;391;51.052;6.954;2022-09-28T12:32:24;99293.34;;;12.92;68.12